Time;durP1;ratioP1;P1;durP2;ratioP2;P2;SDS_P1;SDS_P2;PMS_P1;PMS_P2;Temp;Humidity;BMP_temperature;BMP_pressure;BME280_temperature;BME280_humidity;BME280_pressure;Samples;Min_cycle;Max_cycle;Signal;HPM_P1;HPM_P2
2023/07/21 00:01:27;;;;;;;5.70;3.50;;;15.80;99.90;;;;;;5137540;28;20174;-79
2023/07/21 00:03:56;;;;;;;7.60;3.17;;;15.70;99.90;;;;;;5133241;28;20204;-81
2023/07/21 00:06:24;;;;;;;7.47;3.30;;;15.70;99.90;;;;;;5113598;28;20206;-80
2023/07/21 00:08:54;;;;;;;7.10;3.23;;;15.60;99.90;;;;;;5114234;28;20643;-81
2023/07/21 00:11:23;;;;;;;7.10;3.40;;;15.60;99.90;;;;;;5136050;28;20193;-79
2023/07/21 00:13:51;;;;;;;6.10;3.40;;;15.60;99.90;;;;;;5137768;28;20197;-79
2023/07/21 00:16:20;;;;;;;4.77;3.00;;;15.50;99.90;;;;;;5137610;28;20205;-80
2023/07/21 00:18:49;;;;;;;6.13;3.23;;;15.50;99.90;;;;;;5137308;28;20209;-80
2023/07/21 00:21:17;;;;;;;7.60;3.40;;;15.50;99.90;;;;;;5137031;28;20200;-79
2023/07/21 00:23:46;;;;;;;7.40;3.17;;;15.50;99.90;;;;;;5136809;28;20214;-80
2023/07/21 00:26:15;;;;;;;6.50;3.50;;;15.40;99.90;;;;;;5136855;28;20202;-80
2023/07/21 00:28:44;;;;;;;8.37;3.20;;;15.40;99.90;;;;;;5120065;28;20225;-80
2023/07/21 00:31:13;;;;;;;6.83;3.20;;;15.40;99.90;;;;;;5121927;28;20312;-81
2023/07/21 00:33:43;;;;;;;8.87;3.50;;;15.30;99.90;;;;;;5122591;28;20232;-80
2023/07/21 00:36:12;;;;;;;10.70;3.27;;;15.40;99.90;;;;;;5136238;28;20212;-81
2023/07/21 00:38:40;;;;;;;4.90;3.47;;;15.30;99.90;;;;;;5150011;27;20192;-80
2023/07/21 00:41:08;;;;;;;8.43;3.70;;;15.30;99.90;;;;;;5157090;27;20193;-79
2023/07/21 00:43:37;;;;;;;5.63;3.33;;;15.30;99.90;;;;;;5157111;27;20192;-81
2023/07/21 00:46:05;;;;;;;5.53;3.17;;;15.30;99.90;;;;;;5157595;27;20190;-79
2023/07/21 00:48:33;;;;;;;6.40;3.27;;;15.30;99.90;;;;;;5155929;27;20186;-79
2023/07/21 00:51:03;;;;;;;6.77;3.20;;;15.30;99.90;;;;;;5157638;27;20197;-79
2023/07/21 00:53:33;;;;;;;7.73;3.17;;;15.30;99.90;;;;;;5157142;27;20190;-79
2023/07/21 00:56:02;;;;;;;7.97;3.50;;;15.30;99.90;;;;;;5149686;28;20202;-79
2023/07/21 00:58:31;;;;;;;4.67;3.30;;;15.30;99.90;;;;;;5150468;27;20211;-81
2023/07/21 01:01:01;;;;;;;8.53;3.50;;;15.30;99.90;;;;;;5159562;27;20235;-80
2023/07/21 01:03:30;;;;;;;9.23;3.60;;;15.30;99.90;;;;;;5161135;27;20209;-80
2023/07/21 01:05:59;;;;;;;4.73;3.30;;;15.30;99.90;;;;;;5150328;27;20208;-80
2023/07/21 01:08:29;;;;;;;6.90;3.40;;;15.30;99.90;;;;;;5140916;27;20206;-79
2023/07/21 01:10:57;;;;;;;5.50;3.40;;;15.30;99.90;;;;;;5140700;28;20228;-79
2023/07/21 01:13:26;;;;;;;5.97;3.17;;;15.30;99.90;;;;;;5140324;28;20187;-80
2023/07/21 01:15:56;;;;;;;6.77;3.17;;;15.30;99.90;;;;;;5155019;27;20210;-79
2023/07/21 01:18:25;;;;;;;7.27;3.53;;;15.20;99.90;;;;;;5161502;27;20190;-80
2023/07/21 01:20:55;;;;;;;5.67;3.53;;;15.20;99.90;;;;;;5160414;27;20230;-78
2023/07/21 01:23:33;;;;;;;7.43;3.23;;;15.20;99.90;;;;;;5159929;27;20206;-79
2023/07/21 01:26:03;;;;;;;6.50;3.90;;;15.20;99.90;;;;;;5150086;27;20190;-78
2023/07/21 01:28:33;;;;;;;6.37;3.47;;;15.20;99.90;;;;;;5137630;27;20659;-79
2023/07/21 01:31:02;;;;;;;7.93;3.63;;;15.20;99.90;;;;;;5137643;27;20227;-80
2023/07/21 01:33:31;;;;;;;6.13;3.30;;;15.10;99.90;;;;;;5135330;27;20651;-79
2023/07/21 01:36:01;;;;;;;7.33;3.43;;;15.10;99.90;;;;;;5136715;27;20338;-79
2023/07/21 01:38:31;;;;;;;5.23;3.27;;;15.10;99.90;;;;;;5137227;27;20603;-78
2023/07/21 01:40:59;;;;;;;9.67;3.83;;;15.10;99.90;;;;;;5137059;27;20317;-78
2023/07/21 01:43:29;;;;;;;6.47;3.23;;;15.10;99.90;;;;;;5136004;27;20601;-78
2023/07/21 01:45:57;;;;;;;9.37;3.80;;;15.10;99.90;;;;;;5136512;27;20205;-78
2023/07/21 01:48:25;;;;;;;10.33;3.27;;;15.10;99.90;;;;;;5136540;27;20543;-78
2023/07/21 01:50:56;;;;;;;6.37;3.60;;;15.10;99.90;;;;;;5129495;27;20237;-78
2023/07/21 01:53:28;;;;;;;8.60;3.50;;;15.10;99.90;;;;;;5115665;28;20668;-77
2023/07/21 01:56:02;;;;;;;6.37;3.40;;;15.10;99.90;;;;;;5115750;28;20220;-79
2023/07/21 01:58:34;;;;;;;6.23;3.67;;;15.10;99.90;;;;;;5120617;27;20269;-79
2023/07/21 02:01:03;;;;;;;6.30;3.40;;;15.10;99.90;;;;;;5136429;27;20213;-78
2023/07/21 02:03:32;;;;;;;7.40;3.60;;;15.10;99.90;;;;;;5137680;27;20209;-79
2023/07/21 02:06:00;;;;;;;6.00;3.67;;;15.10;99.90;;;;;;5136801;27;20232;-78
2023/07/21 02:08:28;;;;;;;7.70;3.50;;;15.10;99.90;;;;;;5135189;27;20237;-79
2023/07/21 02:10:56;;;;;;;5.90;3.40;;;15.10;99.90;;;;;;5135218;27;20258;-78
2023/07/21 02:13:25;;;;;;;5.10;3.77;;;15.10;99.90;;;;;;5135142;27;20259;-79
2023/07/21 02:15:54;;;;;;;7.00;3.80;;;15.10;99.90;;;;;;5135993;27;20267;-78
2023/07/21 02:18:22;;;;;;;10.47;3.83;;;15.10;99.90;;;;;;5134542;27;20668;-79
2023/07/21 02:20:50;;;;;;;7.07;3.67;;;15.00;99.90;;;;;;5135285;27;20233;-79
2023/07/21 02:23:18;;;;;;;6.37;3.60;;;15.00;99.90;;;;;;5135189;27;20241;-79
2023/07/21 02:25:47;;;;;;;8.50;3.93;;;15.00;99.90;;;;;;5134214;27;20256;-78
2023/07/21 02:28:15;;;;;;;7.03;4.03;;;15.00;99.90;;;;;;5135354;27;20205;-79
2023/07/21 02:30:43;;;;;;;5.83;3.97;;;15.00;99.90;;;;;;5135316;27;20262;-79
2023/07/21 02:33:15;;;;;;;7.33;3.30;;;15.00;99.90;;;;;;5123417;27;20202;-80
2023/07/21 02:35:43;;;;;;;6.70;4.00;;;15.00;99.90;;;;;;5135013;27;20491;-79
2023/07/21 02:38:12;;;;;;;6.03;3.87;;;15.00;99.90;;;;;;5135189;27;20213;-78
2023/07/21 02:40:40;;;;;;;6.87;3.47;;;15.00;99.90;;;;;;5134935;27;20256;-78
2023/07/21 02:43:08;;;;;;;6.50;3.77;;;15.00;99.90;;;;;;5132950;27;20228;-79
2023/07/21 02:45:36;;;;;;;7.13;3.60;;;14.90;99.90;;;;;;5135034;27;20218;-79
2023/07/21 02:48:07;;;;;;;6.47;3.60;;;14.90;99.90;;;;;;5134719;27;20261;-80
2023/07/21 02:50:38;;;;;;;7.90;3.77;;;14.90;99.90;;;;;;5134970;27;20214;-78
2023/07/21 02:53:06;;;;;;;5.23;3.50;;;14.90;99.90;;;;;;5121684;28;20235;-80
2023/07/21 02:55:34;;;;;;;8.53;3.67;;;14.90;99.90;;;;;;5123053;28;20217;-80
2023/07/21 02:58:02;;;;;;;6.43;3.43;;;14.90;99.90;;;;;;5122899;28;20206;-80
2023/07/21 03:00:31;;;;;;;7.07;3.50;;;14.90;99.90;;;;;;5116854;27;20313;-77
2023/07/21 03:02:59;;;;;;;8.77;3.73;;;14.90;99.90;;;;;;5114148;28;20217;-78
2023/07/21 03:05:29;;;;;;;6.43;3.77;;;14.90;99.90;;;;;;5114010;28;20574;-78
2023/07/21 03:07:59;;;;;;;7.63;3.50;;;14.90;99.90;;;;;;5119646;27;20227;-78
2023/07/21 03:10:27;;;;;;;5.50;3.77;;;14.90;99.90;;;;;;5144380;27;20197;-79
2023/07/21 03:12:55;;;;;;;6.37;3.50;;;14.90;99.90;;;;;;5145344;27;20235;-80
2023/07/21 03:15:23;;;;;;;5.37;3.67;;;14.90;99.90;;;;;;5131959;27;20209;-79
2023/07/21 03:17:52;;;;;;;9.17;3.90;;;14.80;99.90;;;;;;5122577;27;20259;-78
2023/07/21 03:20:20;;;;;;;6.67;3.63;;;14.80;99.90;;;;;;5113814;28;20233;-78
2023/07/21 03:22:48;;;;;;;6.97;4.13;;;14.80;99.90;;;;;;5112989;28;20283;-77
2023/07/21 03:25:18;;;;;;;8.07;4.37;;;14.80;99.90;;;;;;5128571;27;20297;-80
2023/07/21 03:27:46;;;;;;;12.53;4.70;;;14.80;99.90;;;;;;5126112;27;20553;-78
2023/07/21 03:30:14;;;;;;;8.80;4.27;;;14.70;99.90;;;;;;5133908;27;20319;-79
2023/07/21 03:32:45;;;;;;;8.97;4.40;;;14.70;99.90;;;;;;5133381;27;20214;-79
2023/07/21 03:35:14;;;;;;;6.33;4.50;;;14.70;99.90;;;;;;5132119;27;20293;-77
2023/07/21 03:37:43;;;;;;;10.53;4.63;;;14.70;99.90;;;;;;5133960;27;20292;-78
2023/07/21 03:40:11;;;;;;;8.37;4.77;;;14.60;99.90;;;;;;5134038;27;20629;-79
2023/07/21 03:42:41;;;;;;;8.27;5.10;;;14.60;99.90;;;;;;5133555;27;20209;-80
2023/07/21 03:45:09;;;;;;;8.33;4.80;;;14.60;99.90;;;;;;5113615;28;20209;-79
2023/07/21 03:47:37;;;;;;;9.77;4.60;;;14.60;99.90;;;;;;5113091;28;20210;-79
2023/07/21 03:50:08;;;;;;;6.03;4.30;;;14.60;99.90;;;;;;5113545;28;20292;-79
2023/07/21 03:52:36;;;;;;;7.77;4.50;;;14.60;99.90;;;;;;5132080;27;20201;-79
2023/07/21 03:55:05;;;;;;;8.17;4.00;;;14.60;99.90;;;;;;5133781;27;20582;-80
2023/07/21 03:57:34;;;;;;;8.60;4.07;;;14.60;99.90;;;;;;5134061;27;20250;-78
2023/07/21 04:00:05;;;;;;;5.50;4.00;;;14.60;99.90;;;;;;5133279;27;20259;-78
2023/07/21 04:02:34;;;;;;;11.17;4.50;;;14.70;99.90;;;;;;5133806;27;20579;-77
2023/07/21 04:05:03;;;;;;;8.87;4.10;;;14.70;99.90;;;;;;5133838;27;20562;-78
2023/07/21 04:07:31;;;;;;;9.03;3.83;;;14.70;99.90;;;;;;5132038;27;20239;-79
2023/07/21 04:09:59;;;;;;;12.73;4.37;;;14.80;99.90;;;;;;5126651;27;20210;-78
2023/07/21 04:12:28;;;;;;;7.90;4.30;;;14.80;99.90;;;;;;5113164;28;20210;-77
2023/07/21 04:14:56;;;;;;;6.50;4.33;;;14.90;99.90;;;;;;5113462;28;20234;-80
2023/07/21 04:17:26;;;;;;;6.33;4.20;;;14.90;99.90;;;;;;5120428;28;20254;-79
2023/07/21 04:19:56;;;;;;;9.90;4.30;;;14.90;99.90;;;;;;5134132;28;20551;-79
2023/07/21 04:22:25;;;;;;;9.97;4.83;;;14.90;99.90;;;;;;5134254;28;20242;-79
2023/07/21 04:24:53;;;;;;;10.90;4.63;;;15.00;99.90;;;;;;5134496;28;20209;-79
2023/07/21 04:27:21;;;;;;;7.37;4.90;;;15.00;99.90;;;;;;5138225;28;20201;-77
2023/07/21 04:29:49;;;;;;;7.90;4.80;;;15.10;99.90;;;;;;5137359;28;20228;-78
2023/07/21 04:32:18;;;;;;;7.50;5.10;;;15.20;99.90;;;;;;5134592;28;20217;-80
2023/07/21 04:34:47;;;;;;;6.80;4.77;;;15.20;99.90;;;;;;5126427;27;20209;-79
2023/07/21 04:37:15;;;;;;;8.80;4.87;;;15.30;99.90;;;;;;5138719;27;20258;-79
2023/07/21 04:39:43;;;;;;;9.67;5.80;;;15.40;99.90;;;;;;5138999;27;20201;-79
2023/07/21 04:42:12;;;;;;;6.70;5.07;;;15.40;99.90;;;;;;5138165;27;20285;-78
2023/07/21 04:44:40;;;;;;;7.43;4.60;;;15.50;99.90;;;;;;5136142;27;20202;-78
2023/07/21 04:47:08;;;;;;;7.67;4.90;;;15.60;99.90;;;;;;5125489;27;20605;-78
2023/07/21 04:49:37;;;;;;;6.97;4.60;;;15.70;99.90;;;;;;5120209;27;20193;-78
2023/07/21 04:52:07;;;;;;;8.20;5.03;;;15.80;99.90;;;;;;5140810;27;20208;-79
2023/07/21 04:54:36;;;;;;;6.87;4.80;;;15.80;99.90;;;;;;5128202;27;20278;-79
2023/07/21 04:57:04;;;;;;;6.27;5.03;;;15.90;99.90;;;;;;5117007;28;20285;-78
2023/07/21 04:59:33;;;;;;;6.20;4.87;;;16.00;99.90;;;;;;5117082;28;20206;-78
2023/07/21 05:02:01;;;;;;;9.13;5.10;;;16.10;99.90;;;;;;5116633;28;20226;-79
2023/07/21 05:04:29;;;;;;;6.97;4.93;;;16.10;99.90;;;;;;5135816;27;20206;-79
2023/07/21 05:06:57;;;;;;;9.57;5.27;;;16.20;99.90;;;;;;5136147;27;20255;-79
2023/07/21 05:09:27;;;;;;;8.83;5.10;;;16.30;99.90;;;;;;5137249;27;20681;-78
2023/07/21 05:11:55;;;;;;;6.33;4.67;;;16.40;99.90;;;;;;5137578;27;20250;-79
2023/07/21 05:14:23;;;;;;;6.73;5.07;;;16.40;99.90;;;;;;5136676;27;20267;-78
2023/07/21 05:16:52;;;;;;;9.43;5.20;;;16.50;99.90;;;;;;5137814;27;20202;-79
2023/07/21 05:19:20;;;;;;;9.10;5.50;;;16.50;99.90;;;;;;5137528;27;20213;-79
2023/07/21 05:21:48;;;;;;;9.50;4.87;;;16.50;99.90;;;;;;5137299;27;20229;-79
2023/07/21 05:24:16;;;;;;;8.13;4.87;;;16.60;99.90;;;;;;5136788;27;20580;-79
2023/07/21 05:26:46;;;;;;;5.97;4.60;;;16.70;99.90;;;;;;5129419;27;20212;-79
2023/07/21 05:29:14;;;;;;;7.77;4.90;;;16.70;99.90;;;;;;5137302;27;20212;-79
2023/07/21 05:31:42;;;;;;;7.30;4.97;;;16.70;99.90;;;;;;5137008;27;20239;-78
2023/07/21 05:34:10;;;;;;;8.20;4.97;;;16.70;99.90;;;;;;5137048;27;20201;-78
2023/07/21 05:36:39;;;;;;;8.57;4.87;;;16.70;99.90;;;;;;5139698;27;20213;-79
2023/07/21 05:39:07;;;;;;;6.63;5.30;;;16.80;99.90;;;;;;5137452;27;20206;-79
2023/07/21 05:41:35;;;;;;;8.97;5.70;;;16.80;99.90;;;;;;5135998;27;20225;-80
2023/07/21 05:44:05;;;;;;;7.57;5.27;;;16.70;99.90;;;;;;5136661;27;20731;-78
2023/07/21 05:46:33;;;;;;;9.57;5.27;;;16.80;99.90;;;;;;5135805;27;20560;-78
2023/07/21 05:49:01;;;;;;;9.83;5.60;;;16.80;99.90;;;;;;5134748;27;20213;-79
2023/07/21 05:51:30;;;;;;;8.77;5.77;;;16.90;99.90;;;;;;5125190;27;20210;-79
2023/07/21 05:53:59;;;;;;;9.00;5.27;;;17.00;99.90;;;;;;5130590;27;20193;-77
2023/07/21 05:56:27;;;;;;;10.00;5.23;;;16.90;99.90;;;;;;5133749;27;20202;-77
2023/07/21 05:58:56;;;;;;;8.27;5.40;;;17.00;99.90;;;;;;5130533;27;20220;-78
2023/07/21 06:01:27;;;;;;;9.77;5.30;;;17.10;99.90;;;;;;5132681;27;20563;-77
2023/07/21 06:03:56;;;;;;;7.30;5.17;;;17.20;99.90;;;;;;5127864;27;20218;-78
2023/07/21 06:06:24;;;;;;;8.90;5.10;;;17.30;99.90;;;;;;5130029;27;20206;-79
2023/07/21 06:08:53;;;;;;;7.67;5.00;;;17.60;99.90;;;;;;5134776;27;20217;-79
2023/07/21 06:11:22;;;;;;;8.20;4.83;;;18.20;99.90;;;;;;5137544;27;20250;-78
2023/07/21 06:13:50;;;;;;;5.70;4.57;;;18.60;99.90;;;;;;5135409;27;20731;-77
2023/07/21 06:16:19;;;;;;;9.67;5.00;;;18.50;99.90;;;;;;5136031;27;20213;-78
2023/07/21 06:18:49;;;;;;;6.83;4.63;;;18.70;99.90;;;;;;5120359;27;20285;-78
2023/07/21 06:21:17;;;;;;;6.60;4.53;;;18.50;99.90;;;;;;5115960;28;20299;-79
2023/07/21 06:23:45;;;;;;;8.53;4.87;;;18.20;99.90;;;;;;5117061;28;20237;-77
2023/07/21 06:26:13;;;;;;;10.53;5.30;;;18.10;99.90;;;;;;5120479;27;20616;-79
2023/07/21 06:28:42;;;;;;;8.87;5.67;;;18.00;99.90;;;;;;5117465;27;20589;-78
2023/07/21 06:31:11;;;;;;;6.03;4.83;;;18.00;99.90;;;;;;5117099;28;20297;-78
2023/07/21 06:33:40;;;;;;;7.73;5.37;;;18.00;99.90;;;;;;5118060;28;20668;-79
2023/07/21 06:36:09;;;;;;;9.40;5.30;;;18.00;99.90;;;;;;5117266;27;20705;-78
2023/07/21 06:38:38;;;;;;;10.47;5.13;;;18.10;99.90;;;;;;5117744;28;20251;-79
2023/07/21 06:41:06;;;;;;;8.27;4.73;;;18.40;99.90;;;;;;5116359;28;20627;-79
2023/07/21 06:43:34;;;;;;;7.47;4.53;;;18.70;99.90;;;;;;5116092;28;20225;-79
2023/07/21 06:46:03;;;;;;;8.67;4.57;;;19.10;99.90;;;;;;5114763;28;20812;-79
2023/07/21 06:48:32;;;;;;;6.47;4.47;;;19.50;99.90;;;;;;5115292;28;20210;-80
2023/07/21 06:51:00;;;;;;;6.00;4.37;;;20.00;99.90;;;;;;5115620;28;20205;-79
2023/07/21 06:53:30;;;;;;;6.40;4.20;;;20.50;99.90;;;;;;5122729;27;20246;-79
2023/07/21 06:55:58;;;;;;;6.93;4.03;;;20.70;99.90;;;;;;5137247;27;20622;-82
2023/07/21 06:58:26;;;;;;;7.60;4.17;;;21.20;99.90;;;;;;5147999;27;20230;-82
2023/07/21 07:00:57;;;;;;;6.13;4.03;;;21.70;99.90;;;;;;5138055;27;20264;-80
2023/07/21 07:03:26;;;;;;;8.70;3.60;;;22.20;99.90;;;;;;5115733;27;20244;-80
2023/07/21 07:05:55;;;;;;;4.73;3.80;;;23.10;99.90;;;;;;5114962;28;20319;-83
2023/07/21 07:08:24;;;;;;;6.27;3.53;;;24.00;99.90;;;;;;5114879;28;20713;-82
2023/07/21 07:10:53;;;;;;;8.90;3.80;;;25.20;99.90;;;;;;5115055;27;20210;-81
2023/07/21 07:13:21;;;;;;;6.23;3.60;;;25.90;97.00;;;;;;5133306;27;20205;-82
2023/07/21 07:15:50;;;;;;;5.80;3.60;;;25.60;96.80;;;;;;5133931;27;20632;-82
2023/07/21 07:18:18;;;;;;;5.27;3.03;;;25.20;97.20;;;;;;5133585;27;20882;-81
2023/07/21 07:20:50;;;;;;;5.93;3.60;;;24.60;99.00;;;;;;5132974;27;20205;-82
2023/07/21 07:23:19;;;;;;;4.83;3.30;;;24.40;99.80;;;;;;5133212;27;20229;-82
2023/07/21 07:25:48;;;;;;;5.45;3.20;;;25.00;99.00;;;;;;5125670;27;20271;-79
2023/07/21 07:28:20;;;;;;;5.55;3.20;;;25.70;97.30;;;;;;5114383;28;20202;-83
2023/07/21 07:30:49;;;;;;;4.15;3.33;;;25.80;95.40;;;;;;5132781;27;20221;-83
2023/07/21 07:33:17;;;;;;;7.07;3.47;;;25.40;94.90;;;;;;5134152;27;20212;-82
2023/07/21 07:35:50;;;;;;;5.82;3.33;;;25.40;95.80;;;;;;5134416;27;20609;-81
2023/07/21 07:38:26;;;;;;;4.93;3.45;;;25.30;96.10;;;;;;5133529;27;20576;-82
2023/07/21 07:40:55;;;;;;;5.63;3.30;;;25.10;97.50;;;;;;5134408;27;20240;-82
2023/07/21 07:43:24;;;;;;;4.73;3.20;;;25.00;96.50;;;;;;5134339;27;20244;-80
2023/07/21 07:45:52;;;;;;;5.60;3.40;;;24.40;99.40;;;;;;5135743;27;20209;-81
2023/07/21 07:48:22;;;;;;;6.33;3.40;;;24.10;99.10;;;;;;5133891;27;20338;-80
2023/07/21 07:50:51;;;;;;;5.97;3.50;;;23.70;99.90;;;;;;5135226;27;20209;-80
2023/07/21 07:53:19;;;;;;;7.00;3.60;;;23.40;99.90;;;;;;5134191;27;20219;-82
2023/07/21 07:55:47;;;;;;;5.23;3.50;;;23.40;99.90;;;;;;5133697;27;20262;-82
2023/07/21 07:58:16;;;;;;;6.33;3.67;;;23.30;99.90;;;;;;5135981;27;20210;-80
2023/07/21 08:00:45;;;;;;;7.30;4.03;;;23.30;99.90;;;;;;5136304;27;20212;-80
2023/07/21 08:03:13;;;;;;;7.63;3.83;;;23.20;99.90;;;;;;5134813;27;20219;-80
2023/07/21 08:05:42;;;;;;;8.17;3.80;;;23.20;99.90;;;;;;5134069;27;20213;-80
2023/07/21 08:08:10;;;;;;;8.77;4.00;;;23.00;99.90;;;;;;5135637;27;20690;-79
2023/07/21 08:10:41;;;;;;;7.97;4.10;;;22.80;99.90;;;;;;5133269;27;20236;-79
2023/07/21 08:13:10;;;;;;;7.17;4.40;;;22.50;99.90;;;;;;5122583;28;20305;-81
2023/07/21 08:15:40;;;;;;;4.80;3.80;;;22.50;99.90;;;;;;5115498;28;20209;-81
2023/07/21 08:18:11;;;;;;;5.87;3.87;;;22.30;99.90;;;;;;5114325;28;20205;-80
2023/07/21 08:20:40;;;;;;;8.33;4.40;;;22.20;99.90;;;;;;5120623;28;20237;-81
2023/07/21 08:23:08;;;;;;;7.70;4.47;;;22.10;99.90;;;;;;5147118;28;20233;-81
2023/07/21 08:25:56;;;;;;;7.53;4.17;;;22.00;99.90;;;;;;5127725;28;20265;-81
2023/07/21 08:28:25;;;;;;;8.53;4.27;;;22.10;99.90;;;;;;5125609;28;20796;-82
2023/07/21 08:30:53;;;;;;;9.00;4.87;;;22.10;99.90;;;;;;5152044;27;20212;-81
2023/07/21 08:33:27;;;;;;;7.00;4.07;;;21.80;99.90;;;;;;5146035;27;20646;-80
2023/07/21 08:35:56;;;;;;;7.87;4.40;;;22.00;99.90;;;;;;5148751;27;20255;-80
2023/07/21 08:38:25;;;;;;;6.00;4.00;;;22.00;99.90;;;;;;5145167;27;20196;-81
2023/07/21 08:40:59;;;;;;;7.20;3.90;;;22.00;99.90;;;;;;5148045;28;20201;-79
2023/07/21 08:43:29;;;;;;;13.90;4.20;;;22.00;99.90;;;;;;5152896;27;20209;-79
2023/07/21 08:46:00;;;;;;;6.43;4.03;;;22.00;99.90;;;;;;5162832;27;20223;-82
2023/07/21 08:48:31;;;;;;;6.97;3.90;;;22.10;99.90;;;;;;5153830;27;20236;-82
2023/07/21 08:51:00;;;;;;;6.40;3.83;;;22.00;99.90;;;;;;5145827;28;20286;-80
2023/07/21 08:53:28;;;;;;;7.13;3.63;;;22.00;99.90;;;;;;5137849;28;20258;-80
2023/07/21 08:55:58;;;;;;;9.17;4.43;;;22.10;99.90;;;;;;5134498;28;20194;-81
2023/07/21 08:58:28;;;;;;;6.23;3.40;;;22.00;99.90;;;;;;5132946;28;20600;-80
2023/07/21 09:00:58;;;;;;;9.37;3.93;;;22.10;99.90;;;;;;5131518;28;20201;-78
2023/07/21 09:03:29;;;;;;;9.83;4.10;;;22.20;99.90;;;;;;5133655;28;20218;-78
2023/07/21 09:06:01;;;;;;;9.40;4.30;;;22.10;99.90;;;;;;5131358;28;20206;-79
2023/07/21 09:08:33;;;;;;;8.03;4.33;;;22.10;99.90;;;;;;5134507;28;20198;-80
2023/07/21 09:11:03;;;;;;;8.10;4.03;;;22.10;99.90;;;;;;5131216;28;20198;-80
2023/07/21 09:13:33;;;;;;;7.10;3.87;;;22.10;99.90;;;;;;5133327;28;20206;-77
2023/07/21 09:16:05;;;;;;;7.87;4.13;;;22.20;99.90;;;;;;5130297;28;20202;-82
2023/07/21 09:18:40;;;;;;;8.57;4.20;;;22.30;99.90;;;;;;5132876;28;20619;-80
2023/07/21 09:21:18;;;;;;;8.23;4.17;;;22.50;99.90;;;;;;5134509;27;20215;-78
2023/07/21 09:23:47;;;;;;;5.23;3.60;;;22.80;99.90;;;;;;5138734;27;20229;-77
2023/07/21 09:26:22;;;;;;;6.50;3.60;;;22.60;99.90;;;;;;5138688;27;20212;-79
2023/07/21 09:28:52;;;;;;;7.80;3.80;;;22.50;99.90;;;;;;5138213;27;20683;-77
2023/07/21 09:31:28;;;;;;;6.10;3.67;;;22.40;99.90;;;;;;5118669;27;20636;-75
2023/07/21 09:34:06;;;;;;;6.53;3.90;;;22.50;99.90;;;;;;5117783;28;20273;-79
2023/07/21 09:36:36;;;;;;;8.00;3.77;;;22.90;99.90;;;;;;5117279;28;20217;-79
2023/07/21 09:39:05;;;;;;;5.93;3.53;;;23.40;99.90;;;;;;5118842;28;20202;-78
2023/07/21 09:41:35;;;;;;;7.23;3.63;;;23.80;99.90;;;;;;5116665;28;20266;-77
2023/07/21 09:44:04;;;;;;;9.40;3.73;;;23.90;99.90;;;;;;5121371;27;20278;-77
2023/07/21 09:46:32;;;;;;;6.40;3.60;;;24.10;99.90;;;;;;5135867;27;20202;-76
2023/07/21 09:49:01;;;;;;;9.37;3.70;;;24.70;99.90;;;;;;5132276;27;20552;-77
2023/07/21 09:51:31;;;;;;;9.80;3.53;;;25.10;97.30;;;;;;5134529;27;20285;-77
2023/07/21 09:54:04;;;;;;;10.10;3.90;;;25.30;96.40;;;;;;5135059;27;20210;-76
2023/07/21 09:56:37;;;;;;;6.10;3.33;;;25.30;95.20;;;;;;5134749;27;20200;-77
2023/07/21 09:59:08;;;;;;;5.90;3.63;;;25.40;93.80;;;;;;5119190;27;20683;-78
2023/07/21 10:01:36;;;;;;;6.50;3.60;;;25.50;94.00;;;;;;5117591;28;20233;-79
2023/07/21 10:04:05;;;;;;;6.17;3.70;;;25.70;93.40;;;;;;5114801;28;20255;-77
2023/07/21 10:06:34;;;;;;;7.53;3.43;;;25.50;93.20;;;;;;5121846;27;20205;-76
2023/07/21 10:09:05;;;;;;;6.83;3.47;;;25.10;92.30;;;;;;5136601;27;20205;-77
2023/07/21 10:11:37;;;;;;;6.27;3.50;;;24.60;91.60;;;;;;5139169;27;20708;-75
2023/07/21 10:14:05;;;;;;;5.33;3.10;;;24.50;92.90;;;;;;5140380;27;20237;-76
2023/07/21 10:16:33;;;;;;;4.87;3.33;;;24.50;93.10;;;;;;5136480;27;20209;-76
2023/07/21 10:19:06;;;;;;;4.53;3.17;;;24.60;92.60;;;;;;5140637;27;20220;-80
2023/07/21 10:21:50;;;;;;;4.27;2.90;;;25.00;94.10;;;;;;5137561;27;20213;-79
2023/07/21 10:24:26;;;;;;;5.07;3.40;;;25.50;91.10;;;;;;5135101;27;20233;-77
2023/07/21 10:26:56;;;;;;;8.77;3.30;;;25.80;91.80;;;;;;5132902;27;20193;-78
2023/07/21 10:29:24;;;;;;;9.77;3.70;;;25.60;91.70;;;;;;5136122;27;20814;-78
2023/07/21 10:31:54;;;;;;;5.37;3.43;;;24.90;91.50;;;;;;5114550;27;20213;-77
2023/07/21 10:34:25;;;;;;;6.80;3.30;;;25.00;92.50;;;;;;5136679;27;20654;-76
2023/07/21 10:36:59;;;;;;;5.63;3.37;;;25.10;93.60;;;;;;5134697;27;20254;-76
2023/07/21 10:39:31;;;;;;;5.10;3.40;;;25.20;92.70;;;;;;5139704;27;20210;-79
2023/07/21 10:42:02;;;;;;;7.00;3.70;;;25.30;93.20;;;;;;5138633;27;20217;-78
2023/07/21 10:44:35;;;;;;;7.43;3.20;;;25.20;92.00;;;;;;5137406;27;20209;-79
2023/07/21 10:47:04;;;;;;;6.73;3.47;;;24.90;93.50;;;;;;5144547;27;20194;-78
2023/07/21 10:49:35;;;;;;;5.27;3.50;;;25.10;93.90;;;;;;5133865;27;20282;-77
2023/07/21 10:52:04;;;;;;;5.63;3.23;;;25.40;93.10;;;;;;5136226;27;20201;-78
2023/07/21 10:54:34;;;;;;;6.80;3.20;;;25.30;94.90;;;;;;5134114;27;20247;-76
2023/07/21 10:57:02;;;;;;;5.20;3.23;;;25.20;94.50;;;;;;5134156;27;20218;-79
2023/07/21 10:59:32;;;;;;;5.57;3.53;;;25.30;94.80;;;;;;5137378;27;20228;-79
2023/07/21 11:02:02;;;;;;;6.20;3.23;;;25.30;94.30;;;;;;5136243;27;20201;-76
2023/07/21 11:04:31;;;;;;;5.17;3.30;;;25.50;93.40;;;;;;5131933;27;20365;-79
2023/07/21 11:07:00;;;;;;;5.37;3.10;;;26.10;93.20;;;;;;5134513;27;20223;-79
2023/07/21 11:09:33;;;;;;;6.00;3.50;;;26.80;92.50;;;;;;5134271;27;20201;-76
2023/07/21 11:12:05;;;;;;;6.67;3.53;;;26.70;91.00;;;;;;5134495;27;20202;-81
2023/07/21 11:14:33;;;;;;;4.83;3.13;;;26.20;90.90;;;;;;5133232;27;20249;-79
2023/07/21 11:17:04;;;;;;;7.10;3.43;;;26.50;91.90;;;;;;5135626;27;20270;-80
2023/07/21 11:19:35;;;;;;;5.47;3.40;;;26.80;91.10;;;;;;5133534;27;20198;-80
2023/07/21 11:22:05;;;;;;;6.43;3.30;;;27.30;90.60;;;;;;5137770;27;20594;-79
2023/07/21 11:24:34;;;;;;;3.87;3.20;;;27.60;87.00;;;;;;5133593;27;20201;-79
2023/07/21 11:27:07;;;;;;;3.70;2.83;;;27.80;86.40;;;;;;5135774;27;20198;-79
2023/07/21 11:29:40;;;;;;;5.83;3.17;;;27.70;84.90;;;;;;5131721;27;20201;-76
2023/07/21 11:32:19;;;;;;;7.10;3.70;;;27.30;86.10;;;;;;5134589;27;20296;-79
2023/07/21 11:34:54;;;;;;;8.73;3.50;;;26.70;85.80;;;;;;5134070;27;20213;-78
2023/07/21 11:37:23;;;;;;;3.67;3.13;;;26.00;90.10;;;;;;5134731;27;20557;-79
2023/07/21 11:39:56;;;;;;;5.07;3.10;;;26.30;90.80;;;;;;5136702;27;20244;-77
2023/07/21 11:42:26;;;;;;;4.27;3.10;;;26.90;92.20;;;;;;5135349;27;20570;-76
2023/07/21 11:44:54;;;;;;;8.90;3.27;;;27.20;89.10;;;;;;5134324;27;20243;-77
2023/07/21 11:47:22;;;;;;;5.07;3.20;;;27.50;90.50;;;;;;5127968;27;20202;-77
2023/07/21 11:49:54;;;;;;;8.83;3.30;;;27.70;89.30;;;;;;5132591;27;20200;-77
2023/07/21 11:52:24;;;;;;;4.03;3.20;;;27.70;84.10;;;;;;5135868;27;20185;-78
2023/07/21 11:54:54;;;;;;;7.43;3.43;;;27.70;86.10;;;;;;5131087;27;20225;-79
2023/07/21 11:57:22;;;;;;;4.93;3.40;;;27.60;82.60;;;;;;5137388;27;20193;-78
2023/07/21 11:59:51;;;;;;;5.23;3.30;;;27.40;83.20;;;;;;5136431;27;20250;-76
2023/07/21 12:02:22;;;;;;;6.67;3.60;;;27.20;85.20;;;;;;5136682;27;20204;-78
2023/07/21 12:04:52;;;;;;;6.10;3.40;;;27.00;85.30;;;;;;5138861;27;20284;-78
2023/07/21 12:07:22;;;;;;;4.43;3.00;;;27.20;86.40;;;;;;5136461;27;20268;-78
2023/07/21 12:09:50;;;;;;;5.63;2.90;;;27.00;84.50;;;;;;5140560;27;20202;-76
2023/07/21 12:12:18;;;;;;;5.23;3.50;;;27.20;87.40;;;;;;5142027;27;20202;-80
2023/07/21 12:14:46;;;;;;;5.87;3.20;;;27.20;85.40;;;;;;5144987;28;20206;-77
2023/07/21 12:17:17;;;;;;;5.03;3.10;;;27.70;82.60;;;;;;5137017;28;20194;-77
2023/07/21 12:19:49;;;;;;;4.60;3.10;;;28.00;81.70;;;;;;5137548;28;20204;-75
2023/07/21 12:22:18;;;;;;;5.10;3.03;;;28.00;77.70;;;;;;5136825;28;20193;-78
2023/07/21 12:24:46;;;;;;;6.00;3.00;;;27.80;79.20;;;;;;5129957;28;20231;-77
2023/07/21 12:27:14;;;;;;;5.40;2.93;;;28.00;77.90;;;;;;5144960;28;20217;-79
2023/07/21 12:29:42;;;;;;;5.13;2.90;;;28.10;79.70;;;;;;5146275;28;20202;-82
2023/07/21 12:32:17;;;;;;;6.80;3.23;;;28.30;79.40;;;;;;5137965;28;20289;-79
2023/07/21 12:34:46;;;;;;;4.00;2.70;;;27.80;77.90;;;;;;5145394;28;20205;-81
2023/07/21 12:37:15;;;;;;;6.40;3.37;;;27.40;82.20;;;;;;5152271;28;20198;-78
2023/07/21 12:39:43;;;;;;;7.00;3.27;;;27.20;77.60;;;;;;5137798;28;20205;-79
2023/07/21 12:42:11;;;;;;;7.37;3.23;;;27.00;78.60;;;;;;5139853;28;20204;-76
2023/07/21 12:44:39;;;;;;;5.60;3.27;;;27.00;79.80;;;;;;5134933;28;20767;-78
2023/07/21 12:47:07;;;;;;;4.87;2.80;;;27.40;78.50;;;;;;5135653;28;20467;-76
2023/07/21 12:49:37;;;;;;;4.70;2.80;;;27.80;78.60;;;;;;5138237;28;20205;-79
2023/07/21 12:52:06;;;;;;;5.40;2.93;;;28.10;77.60;;;;;;5136776;28;20209;-79
2023/07/21 12:54:34;;;;;;;11.07;3.07;;;28.50;74.60;;;;;;5136703;28;20228;-76
2023/07/21 12:57:03;;;;;;;6.73;2.80;;;28.50;74.40;;;;;;5140797;27;20225;-79